createdAt,value
2022-12-01T00:02:07.037Z,13.57
2022-12-01T00:04:34.235Z,14.60
2022-12-01T00:07:01.345Z,14.38
2022-12-01T00:09:47.681Z,14.25
2022-12-01T00:12:14.990Z,15.07
2022-12-01T00:14:42.025Z,15.70
2022-12-01T00:17:09.098Z,14.43
2022-12-01T00:19:36.154Z,15.75
2022-12-01T00:22:03.303Z,13.90
2022-12-01T00:24:30.368Z,15.15
2022-12-01T00:26:57.685Z,14.95
2022-12-01T00:29:24.767Z,16.48
2022-12-01T00:31:51.848Z,15.02
2022-12-01T00:34:22.677Z,15.65
2022-12-01T00:36:49.832Z,15.50
2022-12-01T00:39:16.872Z,14.98
2022-12-01T00:41:43.918Z,16.00
2022-12-01T00:44:11.071Z,14.10
2022-12-01T00:46:38.252Z,16.25
2022-12-01T00:49:06.135Z,15.80
2022-12-01T00:51:33.178Z,16.85
2022-12-01T00:54:00.369Z,14.32
2022-12-01T00:56:27.534Z,16.70
2022-12-01T00:58:54.621Z,15.48
2022-12-01T01:01:21.754Z,15.98
2022-12-01T01:03:48.894Z,15.40
2022-12-01T01:06:16.520Z,16.52
2022-12-01T01:08:43.650Z,16.13
2022-12-01T01:11:10.761Z,17.05
2022-12-01T01:13:37.972Z,16.90
2022-12-01T01:16:05.199Z,15.20
2022-12-01T01:18:32.699Z,17.38
2022-12-01T01:21:00.603Z,15.80
2022-12-01T01:23:27.692Z,15.60
2022-12-01T01:25:54.716Z,16.42
2022-12-01T01:28:21.812Z,15.50
2022-12-01T01:30:49.053Z,15.43
2022-12-01T01:33:16.164Z,16.30
2022-12-01T01:35:43.281Z,14.10
2022-12-01T01:38:11.430Z,16.20
2022-12-01T01:40:45.539Z,14.50
2022-12-01T01:43:18.390Z,16.88
2022-12-01T01:45:46.094Z,16.00
2022-12-01T01:48:14.510Z,15.45
2022-12-01T01:50:42.529Z,15.52
2022-12-01T01:53:11.493Z,15.93
2022-12-01T01:55:38.887Z,16.80
2022-12-01T01:58:09.931Z,15.95
2022-12-01T02:00:38.685Z,15.93
2022-12-01T02:03:05.850Z,16.15
2022-12-01T02:05:34.519Z,15.90
2022-12-01T02:08:02.729Z,16.73
2022-12-01T02:10:48.648Z,16.42
2022-12-01T02:13:27.964Z,15.48
2022-12-01T02:16:15.122Z,15.05
2022-12-01T02:19:00.737Z,16.80
2022-12-01T02:21:46.441Z,16.70
2022-12-01T02:24:19.511Z,15.45
2022-12-01T02:27:07.487Z,16.83
2022-12-01T02:29:53.150Z,16.50
2022-12-01T02:32:38.472Z,16.65
2022-12-01T02:35:08.424Z,15.00
2022-12-01T02:37:50.134Z,16.05
2022-12-01T02:40:20.419Z,17.83
2022-12-01T02:42:50.565Z,16.55
2022-12-01T02:45:21.301Z,15.93
2022-12-01T02:47:49.455Z,15.52
2022-12-01T02:50:16.809Z,17.10
2022-12-01T02:52:44.042Z,15.45
2022-12-01T02:55:11.092Z,16.25
2022-12-01T02:57:38.202Z,17.77
2022-12-01T03:00:06.623Z,17.15
2022-12-01T03:02:44.508Z,17.65
2022-12-01T03:05:35.005Z,16.35
2022-12-01T03:08:02.138Z,16.90
2022-12-01T03:10:38.831Z,17.67
2022-12-01T03:13:14.937Z,17.08
2022-12-01T03:15:51.316Z,19.08
2022-12-01T03:18:30.702Z,18.08
2022-12-01T03:21:02.505Z,17.63
2022-12-01T03:23:31.312Z,15.90
2022-12-01T03:25:59.964Z,19.02
2022-12-01T03:28:30.890Z,18.23
2022-12-01T03:31:00.638Z,18.88
2022-12-01T03:33:33.250Z,17.15
2022-12-01T03:36:21.468Z,16.77
2022-12-01T03:38:50.579Z,17.80
2022-12-01T03:41:19.607Z,18.48
2022-12-01T03:43:50.955Z,16.88
2022-12-01T03:46:36.111Z,17.88
2022-12-01T03:49:03.796Z,17.52
2022-12-01T03:51:31.082Z,19.48
2022-12-01T03:54:01.171Z,18.02
2022-12-01T03:56:30.676Z,18.10
2022-12-01T03:58:58.568Z,18.60
2022-12-01T04:01:27.706Z,17.27
2022-12-01T04:03:54.870Z,16.90
2022-12-01T04:06:21.975Z,17.98
2022-12-01T04:08:49.073Z,19.35
2022-12-01T04:11:34.882Z,18.58
2022-12-01T04:14:01.928Z,17.80
2022-12-01T04:16:29.085Z,18.50
2022-12-01T04:18:56.213Z,17.45
2022-12-01T04:21:23.295Z,18.85
2022-12-01T04:24:03.035Z,17.65
2022-12-01T04:26:32.129Z,18.33
2022-12-01T04:29:02.712Z,16.90
2022-12-01T04:31:30.131Z,17.90
2022-12-01T04:33:58.173Z,17.58
2022-12-01T04:36:25.528Z,18.40
2022-12-01T04:38:52.829Z,16.88
2022-12-01T04:41:19.931Z,16.98
2022-12-01T04:43:47.057Z,17.77
2022-12-01T04:46:14.931Z,18.20
2022-12-01T04:48:43.225Z,17.75
2022-12-01T04:51:10.332Z,18.20
2022-12-01T04:53:37.586Z,19.15
2022-12-01T04:56:04.803Z,17.38
2022-12-01T04:58:32.620Z,17.10
2022-12-01T05:01:03.158Z,19.63
2022-12-01T05:03:30.613Z,17.50
2022-12-01T05:06:04.391Z,18.70
2022-12-01T05:08:31.548Z,17.35
2022-12-01T05:10:58.741Z,17.05
2022-12-01T05:13:25.839Z,20.45
2022-12-01T05:15:53.080Z,16.77
2022-12-01T05:18:20.269Z,17.33
2022-12-01T05:20:59.661Z,17.50
2022-12-01T05:23:27.528Z,17.35
2022-12-01T05:25:54.988Z,20.70
2022-12-01T05:28:22.841Z,18.00
2022-12-01T05:30:50.225Z,15.65
2022-12-01T05:33:17.379Z,16.73
2022-12-01T05:35:44.526Z,17.33
2022-12-01T05:38:11.687Z,18.60
2022-12-01T05:40:39.139Z,17.52
2022-12-01T05:43:06.555Z,19.95
2022-12-01T05:45:34.013Z,18.13
2022-12-01T05:48:01.580Z,16.20
2022-12-01T05:50:29.955Z,17.88
2022-12-01T05:52:57.337Z,19.15
2022-12-01T05:55:24.377Z,17.90
2022-12-01T05:57:51.468Z,18.05
2022-12-01T06:00:18.786Z,16.70
2022-12-01T06:02:45.872Z,18.30
2022-12-01T06:05:12.983Z,18.13
2022-12-01T06:07:40.422Z,18.17
2022-12-01T06:10:09.313Z,19.42
2022-12-01T06:12:36.982Z,19.63
2022-12-01T06:15:04.232Z,18.52
2022-12-01T06:17:34.558Z,19.33
2022-12-01T06:20:04.303Z,18.05
2022-12-01T06:22:31.391Z,18.25
2022-12-01T06:24:58.447Z,18.65
2022-12-01T06:27:25.533Z,16.90
2022-12-01T06:29:53.069Z,19.17
2022-12-01T06:32:20.440Z,19.38
2022-12-01T06:34:47.514Z,19.73
2022-12-01T06:37:15.717Z,18.70
2022-12-01T06:39:43.488Z,17.73
2022-12-01T06:42:10.655Z,17.83
2022-12-01T06:44:37.982Z,21.70
2022-12-01T06:47:05.260Z,19.25
2022-12-01T06:49:32.394Z,19.98
2022-12-01T06:52:01.082Z,18.00
2022-12-01T06:54:28.367Z,19.25
2022-12-01T06:56:55.480Z,21.65
2022-12-01T06:59:23.677Z,17.52
2022-12-01T07:01:51.209Z,21.02
2022-12-01T07:04:18.336Z,18.27
2022-12-01T07:06:45.434Z,20.90
2022-12-01T07:09:12.472Z,18.83
2022-12-01T07:11:39.573Z,19.98
2022-12-01T07:14:06.693Z,20.02
2022-12-01T07:16:33.883Z,19.60
2022-12-01T07:19:01.050Z,21.13
2022-12-01T07:21:28.229Z,19.48
2022-12-01T07:23:55.442Z,18.80
2022-12-01T07:26:23.439Z,19.17
2022-12-01T07:28:50.534Z,19.23
2022-12-01T07:31:18.999Z,18.58
2022-12-01T07:33:46.118Z,19.30
2022-12-01T07:36:13.370Z,20.02
2022-12-01T07:38:40.653Z,19.63
2022-12-01T07:41:12.066Z,19.05
2022-12-01T07:43:39.649Z,19.52
2022-12-01T07:46:20.316Z,18.60
2022-12-01T07:48:49.220Z,18.80
2022-12-01T07:51:19.320Z,17.45
2022-12-01T07:53:47.219Z,19.25
2022-12-01T07:56:14.586Z,19.13
2022-12-01T07:58:41.851Z,18.58
2022-12-01T08:01:09.042Z,18.92
2022-12-01T08:03:36.373Z,17.65
2022-12-01T08:06:03.961Z,20.15
2022-12-01T08:08:32.210Z,19.70
2022-12-01T08:11:03.133Z,18.45
2022-12-01T08:13:30.828Z,19.13
2022-12-01T08:15:58.177Z,21.77
2022-12-01T08:18:25.636Z,19.52
2022-12-01T08:20:57.430Z,18.98
2022-12-01T08:23:24.612Z,19.75
2022-12-01T08:25:52.546Z,20.55
2022-12-01T08:28:20.217Z,20.27
2022-12-01T08:30:47.994Z,20.52
2022-12-01T08:33:15.226Z,18.55
2022-12-01T08:35:42.293Z,20.83
2022-12-01T08:38:10.551Z,18.90
2022-12-01T08:40:37.641Z,18.85
2022-12-01T08:43:05.023Z,16.98
2022-12-01T08:45:32.150Z,18.60
2022-12-01T08:47:59.937Z,18.50
2022-12-01T08:50:27.830Z,19.63
2022-12-01T08:52:55.234Z,17.90
2022-12-01T08:55:22.722Z,18.50
2022-12-01T08:57:49.875Z,18.02
2022-12-01T09:00:17.247Z,20.63
2022-12-01T09:02:44.426Z,19.95
2022-12-01T09:05:11.584Z,19.85
2022-12-01T09:07:38.852Z,20.15
2022-12-01T09:10:06.334Z,17.40
2022-12-01T09:12:33.594Z,18.13
2022-12-01T09:15:00.776Z,18.70
2022-12-01T09:17:29.119Z,17.33
2022-12-01T09:19:56.290Z,17.92
2022-12-01T09:22:23.509Z,18.77
2022-12-01T09:24:50.750Z,18.23
2022-12-01T09:27:17.860Z,18.30
2022-12-01T09:29:44.978Z,17.00
2022-12-01T09:32:12.065Z,17.15
2022-12-01T09:34:39.264Z,17.33
2022-12-01T09:37:07.635Z,17.77
2022-12-01T09:39:34.807Z,16.67
2022-12-01T09:42:33.783Z,16.10
2022-12-01T09:45:04.606Z,15.90
2022-12-01T09:47:33.170Z,16.92
2022-12-01T09:50:03.303Z,17.52
2022-12-01T09:52:33.555Z,16.70
2022-12-01T09:55:01.512Z,17.25
2022-12-01T09:57:34.313Z,17.65
2022-12-01T10:00:03.005Z,16.35
2022-12-01T10:02:33.298Z,16.73
2022-12-01T10:05:02.590Z,17.63
2022-12-01T10:07:32.624Z,16.27
2022-12-01T10:10:04.943Z,18.25
2022-12-01T10:12:34.024Z,18.25
2022-12-01T10:15:11.555Z,16.75
2022-12-01T10:17:38.841Z,17.17
2022-12-01T10:20:15.118Z,17.80
2022-12-01T10:23:01.523Z,18.38
2022-12-01T10:25:29.708Z,16.05
2022-12-01T10:28:09.332Z,17.27
2022-12-01T10:30:39.413Z,20.77
2022-12-01T10:33:25.059Z,20.10
2022-12-01T10:35:52.761Z,17.13
2022-12-01T10:38:27.584Z,16.58
2022-12-01T10:40:55.498Z,16.85
2022-12-01T10:43:30.258Z,17.60
2022-12-01T10:45:58.392Z,16.65
2022-12-01T10:48:25.699Z,18.42
2022-12-01T10:50:54.203Z,17.50
2022-12-01T10:53:24.259Z,18.05
2022-12-01T10:55:52.367Z,15.80
2022-12-01T10:58:20.140Z,17.67
2022-12-01T11:01:00.625Z,16.40
2022-12-01T11:03:30.963Z,16.85
2022-12-01T11:05:59.474Z,18.63
2022-12-01T11:08:37.420Z,19.15
2022-12-01T11:11:04.815Z,18.90
2022-12-01T11:13:34.576Z,18.58
2022-12-01T11:16:03.190Z,18.95
2022-12-01T11:18:30.341Z,18.38
2022-12-01T11:21:16.718Z,18.08
2022-12-01T11:23:50.942Z,16.98
2022-12-01T11:26:20.873Z,16.73
2022-12-01T11:28:56.583Z,17.30
2022-12-01T11:31:25.465Z,16.65
2022-12-01T11:33:54.293Z,17.73
2022-12-01T11:36:23.538Z,17.83
2022-12-01T11:38:51.390Z,16.85
2022-12-01T11:41:33.072Z,16.48
2022-12-01T11:44:04.123Z,17.50
2022-12-01T11:46:46.303Z,18.50
2022-12-01T11:49:29.995Z,19.40
2022-12-01T11:51:57.199Z,18.30
2022-12-01T11:54:25.654Z,16.33
2022-12-01T11:57:25.249Z,16.25
2022-12-01T11:59:40.555Z,15.70
2022-12-01T12:02:25.911Z,15.98
2022-12-01T12:05:11.745Z,15.80
2022-12-01T12:07:59.084Z,15.95
2022-12-01T12:10:42.409Z,15.80
2022-12-01T12:13:15.853Z,17.30
2022-12-01T12:16:01.111Z,19.17
2022-12-01T12:18:46.592Z,16.73
2022-12-01T12:21:19.628Z,15.45
2022-12-01T12:23:55.141Z,18.48
2022-12-01T12:26:33.025Z,14.43
2022-12-01T12:29:14.115Z,15.93
2022-12-01T12:31:56.636Z,15.23
2022-12-01T12:34:42.087Z,15.32
2022-12-01T12:37:17.283Z,14.85
2022-12-01T12:40:02.898Z,16.13
2022-12-01T12:42:29.950Z,16.88
2022-12-01T12:45:02.235Z,16.27
2022-12-01T12:47:38.437Z,17.02
2022-12-01T12:50:05.553Z,14.40
2022-12-01T12:52:35.071Z,14.18
2022-12-01T12:55:12.559Z,14.13
2022-12-01T12:57:41.687Z,14.77
2022-12-01T13:00:16.056Z,14.30
2022-12-01T13:02:46.156Z,14.98
2022-12-01T13:05:24.659Z,14.95
2022-12-01T13:07:58.127Z,13.95
2022-12-01T13:10:43.870Z,13.55
2022-12-01T13:13:24.038Z,14.07
2022-12-01T13:15:52.067Z,14.20
2022-12-01T13:18:27.961Z,12.80
2022-12-01T13:20:56.566Z,12.43
2022-12-01T13:23:24.664Z,12.80
2022-12-01T13:25:54.063Z,14.05
2022-12-01T13:28:27.402Z,13.80
2022-12-01T13:31:02.273Z,15.02
2022-12-01T13:33:29.979Z,13.32
2022-12-01T13:36:29.969Z,14.20
2022-12-01T13:38:44.893Z,14.23
2022-12-01T13:41:24.307Z,14.43
2022-12-01T13:43:57.085Z,12.75
2022-12-01T13:46:30.541Z,14.85
2022-12-01T13:48:58.716Z,13.52
2022-12-01T13:51:26.401Z,13.10
2022-12-01T13:53:56.652Z,12.57
2022-12-01T13:56:23.734Z,13.60
2022-12-01T13:58:52.050Z,12.55
2022-12-01T14:01:22.761Z,13.00
2022-12-01T14:04:01.932Z,12.85
2022-12-01T14:06:46.388Z,12.50
2022-12-01T14:09:17.746Z,12.55
2022-12-01T14:11:55.857Z,14.00
2022-12-01T14:14:26.159Z,13.93
2022-12-01T14:16:53.592Z,13.00
2022-12-01T14:19:39.218Z,12.95
2022-12-01T14:22:07.371Z,13.32
2022-12-01T14:24:36.306Z,12.77
2022-12-01T14:27:04.693Z,13.73
2022-12-01T14:29:43.201Z,11.80
2022-12-01T14:32:10.541Z,12.80
2022-12-01T14:34:39.073Z,11.95
2022-12-01T14:37:06.337Z,12.52
2022-12-01T14:39:38.794Z,12.68
2022-12-01T14:42:11.885Z,12.48
2022-12-01T14:44:43.399Z,12.45
2022-12-01T14:47:20.541Z,12.18
2022-12-01T14:49:56.767Z,13.45
2022-12-01T14:52:29.889Z,13.07
2022-12-01T14:54:58.777Z,13.88
2022-12-01T14:57:29.907Z,13.48
2022-12-01T15:00:05.585Z,13.23
2022-12-01T15:02:33.099Z,13.73
2022-12-01T15:05:06.310Z,13.75
2022-12-01T15:07:51.744Z,12.30
2022-12-01T15:10:23.463Z,13.45
2022-12-01T15:12:51.486Z,12.02
2022-12-01T15:15:23.866Z,14.23
2022-12-01T15:17:52.192Z,12.18
2022-12-01T15:20:33.855Z,12.55
2022-12-01T15:23:02.346Z,12.93
2022-12-01T15:25:33.630Z,14.13
2022-12-01T15:28:05.459Z,13.35
2022-12-01T15:30:33.134Z,12.77
2022-12-01T15:33:00.499Z,12.52
2022-12-01T15:35:27.799Z,12.40
2022-12-01T15:37:55.905Z,13.93
2022-12-01T15:43:21.918Z,12.75
2022-12-01T15:45:55.971Z,11.93
2022-12-01T15:48:41.600Z,12.68
2022-12-01T15:51:11.782Z,13.88
2022-12-01T15:53:42.718Z,14.00
2022-12-01T15:56:11.187Z,12.98
2022-12-01T15:58:45.808Z,14.00
2022-12-01T16:01:14.651Z,13.48
2022-12-01T16:04:10.888Z,12.90
2022-12-01T16:06:39.204Z,12.80
2022-12-01T16:09:08.447Z,13.77
2022-12-01T16:11:35.651Z,13.35
2022-12-01T16:14:02.946Z,14.88
2022-12-01T16:16:46.280Z,18.08
2022-12-01T16:19:13.520Z,16.00
2022-12-01T16:21:50.950Z,14.32
2022-12-01T16:24:20.513Z,13.15
2022-12-01T16:26:59.387Z,13.18
2022-12-01T16:29:27.607Z,13.55
2022-12-01T16:32:19.206Z,14.57
2022-12-01T16:34:46.606Z,13.40
2022-12-01T16:37:14.416Z,13.23
2022-12-01T16:39:41.939Z,13.77
2022-12-01T16:42:12.693Z,14.38
2022-12-01T16:44:40.067Z,14.27
2022-12-01T16:47:12.836Z,15.32
2022-12-01T16:49:40.008Z,15.95
2022-12-01T16:52:36.648Z,13.60
2022-12-01T16:54:54.512Z,14.95
2022-12-01T16:57:21.694Z,15.45
2022-12-01T16:59:48.900Z,17.73
2022-12-01T17:02:16.280Z,17.63
2022-12-01T17:04:43.540Z,16.65
2022-12-01T17:07:10.822Z,18.65
2022-12-01T17:09:38.022Z,18.67
2022-12-01T17:12:05.260Z,17.45
2022-12-01T17:14:32.457Z,19.05
2022-12-01T17:16:59.652Z,18.60
2022-12-01T17:19:26.753Z,17.85
2022-12-01T17:21:55.753Z,19.63
2022-12-01T17:24:22.894Z,18.38
2022-12-01T17:26:50.080Z,19.27
2022-12-01T17:29:17.212Z,17.73
2022-12-01T17:31:44.423Z,18.42
2022-12-01T17:34:11.725Z,18.83
2022-12-01T17:36:38.870Z,18.55
2022-12-01T17:39:06.112Z,18.83
2022-12-01T17:41:35.627Z,19.30
2022-12-01T17:44:03.715Z,18.15
2022-12-01T17:46:31.223Z,19.05
2022-12-01T17:48:59.348Z,18.35
2022-12-01T17:51:26.588Z,19.40
2022-12-01T17:53:54.154Z,19.60
2022-12-01T17:56:21.332Z,17.73
2022-12-01T17:58:50.562Z,19.30
2022-12-01T18:01:19.045Z,25.98
2022-12-01T18:03:46.309Z,20.80
2022-12-01T18:06:13.684Z,18.13
2022-12-01T18:08:40.865Z,20.55
2022-12-01T18:11:10.084Z,19.42
2022-12-01T18:13:38.465Z,19.05
2022-12-01T18:16:13.361Z,18.30
2022-12-01T18:18:40.580Z,20.02
2022-12-01T18:21:08.673Z,21.30
2022-12-01T18:23:36.046Z,23.48
2022-12-01T18:26:05.072Z,22.38
2022-12-01T18:28:32.585Z,20.30
2022-12-01T18:31:07.336Z,21.65
2022-12-01T18:33:35.276Z,20.42
2022-12-01T18:36:02.582Z,22.48
2022-12-01T18:38:29.689Z,19.67
2022-12-01T18:41:00.537Z,21.05
2022-12-01T18:43:31.556Z,20.77
2022-12-01T18:45:59.280Z,22.02
2022-12-01T18:48:27.037Z,21.35
2022-12-01T18:50:59.241Z,20.85
2022-12-01T18:53:26.749Z,22.27
2022-12-01T18:55:53.809Z,19.88
2022-12-01T18:58:20.952Z,21.25
2022-12-01T19:00:48.134Z,20.30
2022-12-01T19:03:15.888Z,20.98
2022-12-01T19:05:42.952Z,20.00
2022-12-01T19:08:10.126Z,20.70
2022-12-01T19:10:37.259Z,21.98
2022-12-01T19:13:04.321Z,21.00
2022-12-01T19:15:31.402Z,20.45
2022-12-01T19:17:58.510Z,18.45
2022-12-01T19:20:25.549Z,19.50
2022-12-01T19:22:52.667Z,21.23
2022-12-01T19:25:19.809Z,21.73
2022-12-01T19:27:47.641Z,20.05
2022-12-01T19:30:14.824Z,24.25
2022-12-01T19:32:43.502Z,23.92
2022-12-01T19:35:10.659Z,20.67
2022-12-01T19:37:37.744Z,19.65
2022-12-01T19:40:04.973Z,21.27
2022-12-01T19:42:32.057Z,20.83
2022-12-01T19:44:59.335Z,22.13
2022-12-01T19:47:26.456Z,22.13
2022-12-01T19:49:53.522Z,20.40
2022-12-01T19:52:20.628Z,21.52
2022-12-01T19:54:48.001Z,20.50
2022-12-01T19:57:15.347Z,19.23
2022-12-01T19:59:42.530Z,23.15
2022-12-01T20:02:10.547Z,20.55
2022-12-01T20:04:39.441Z,19.80
2022-12-01T20:07:06.675Z,19.05
2022-12-01T20:09:33.977Z,20.42
2022-12-01T20:12:01.104Z,19.35
2022-12-01T20:14:28.144Z,21.23
2022-12-01T20:16:55.866Z,19.85
2022-12-01T20:19:23.049Z,20.67
2022-12-01T20:21:50.193Z,19.38
2022-12-01T20:24:22.789Z,19.52
2022-12-01T20:26:51.859Z,19.38
2022-12-01T20:29:23.619Z,19.60
2022-12-01T20:31:51.981Z,20.88
2022-12-01T20:34:20.819Z,20.83
2022-12-01T20:36:48.376Z,21.45
2022-12-01T20:39:15.934Z,19.60
2022-12-01T20:41:43.148Z,21.05
2022-12-01T20:44:10.576Z,22.17
2022-12-01T20:46:38.496Z,20.02
2022-12-01T20:49:05.865Z,20.17
2022-12-01T20:51:33.373Z,18.65
2022-12-01T20:54:26.730Z,18.55
2022-12-01T20:56:48.263Z,19.20
2022-12-01T20:59:15.357Z,18.20
2022-12-01T21:01:42.466Z,18.55
2022-12-01T21:04:09.630Z,20.40
2022-12-01T21:06:36.769Z,20.45
2022-12-01T21:09:04.927Z,20.98
2022-12-01T21:11:55.383Z,18.20
2022-12-01T21:14:28.542Z,20.27
2022-12-01T21:16:57.273Z,20.48
2022-12-01T21:19:31.339Z,20.60
2022-12-01T21:21:59.002Z,18.02
2022-12-01T21:24:33.569Z,20.77
2022-12-01T21:27:06.549Z,21.17
2022-12-01T21:29:45.544Z,21.65
2022-12-01T21:32:17.392Z,21.25
2022-12-01T21:34:45.182Z,21.38
2022-12-01T21:37:17.436Z,22.13
2022-12-01T21:39:44.484Z,22.50
2022-12-01T21:42:16.564Z,20.25
2022-12-01T21:47:18.495Z,18.45
2022-12-01T21:49:46.049Z,19.52
2022-12-01T21:52:23.444Z,18.75
2022-12-01T21:54:50.931Z,18.77
2022-12-01T21:57:30.591Z,19.85
2022-12-01T22:00:24.148Z,20.35
2022-12-01T22:03:02.453Z,17.85
2022-12-01T22:05:35.857Z,18.65
2022-12-01T22:08:11.155Z,18.92
2022-12-01T22:10:56.815Z,19.38
2022-12-01T22:13:40.950Z,20.73
2022-12-01T22:16:17.093Z,18.05
2022-12-01T22:18:51.687Z,17.45
2022-12-01T22:21:27.980Z,18.73
2022-12-01T22:24:01.503Z,19.13
2022-12-01T22:26:28.684Z,16.55
2022-12-01T22:28:58.009Z,18.45
2022-12-01T22:31:25.260Z,18.17
2022-12-01T22:34:00.044Z,16.27
2022-12-01T22:36:31.314Z,16.88
2022-12-01T22:38:58.691Z,16.40
2022-12-01T22:41:28.676Z,16.25
2022-12-01T22:44:00.667Z,17.02
2022-12-01T22:48:56.586Z,15.40
2022-12-01T22:51:31.521Z,15.77
2022-12-01T22:54:00.526Z,15.68
2022-12-01T22:56:39.955Z,15.85
2022-12-01T22:59:17.484Z,19.48
2022-12-01T23:01:58.346Z,17.13
2022-12-01T23:04:26.746Z,16.02
2022-12-01T23:06:53.859Z,14.50
2022-12-01T23:09:22.249Z,16.30
2022-12-01T23:12:12.624Z,15.13
2022-12-01T23:14:41.923Z,15.07
2022-12-01T23:17:13.700Z,15.77
2022-12-01T23:19:40.781Z,13.80
2022-12-01T23:22:07.896Z,15.35
2022-12-01T23:24:34.944Z,12.55
2022-12-01T23:27:02.084Z,13.63
2022-12-01T23:29:30.918Z,13.10
2022-12-01T23:31:58.485Z,12.77
2022-12-01T23:34:25.580Z,13.75
2022-12-01T23:36:52.754Z,12.73
2022-12-01T23:39:21.023Z,13.52
2022-12-01T23:41:49.274Z,12.60
2022-12-01T23:44:21.314Z,11.48
2022-12-01T23:49:17.037Z,11.80
2022-12-01T23:51:46.161Z,12.73
2022-12-01T23:54:18.937Z,14.80
2022-12-01T23:56:49.246Z,14.20
2022-12-01T23:59:16.317Z,11.27
